Time;durP1;ratioP1;P1;durP2;ratioP2;P2;SDS_P1;SDS_P2;PMS_P1;PMS_P2;Temp;Humidity;BMP_temperature;BMP_pressure;BME280_temperature;BME280_humidity;BME280_pressure;Samples;Min_cycle;Max_cycle;Signal;HPM_P1;HPM_P2
2023/10/24 00:01:32;;;;;;;10.00;2.93;;;6.90;99.90;;;;;;4363593;28;657058;-67
2023/10/24 00:04:19;;;;;;;15.53;2.87;;;6.80;99.90;;;;;;4373607;28;658608;-67
2023/10/24 00:07:08;;;;;;;7.77;3.03;;;6.80;99.90;;;;;;4370101;28;657210;-67
2023/10/24 00:09:55;;;;;;;11.07;3.17;;;6.80;99.90;;;;;;4347693;28;657595;-67
2023/10/24 00:12:42;;;;;;;6.85;3.13;;;6.80;99.90;;;;;;4344291;28;657977;-67
2023/10/24 00:15:30;;;;;;;10.47;3.27;;;6.80;99.90;;;;;;4373905;28;657282;-67
2023/10/24 00:18:17;;;;;;;10.17;3.77;;;6.80;99.90;;;;;;4361657;28;657976;-67
2023/10/24 00:21:05;;;;;;;10.13;3.37;;;6.80;99.90;;;;;;4361929;28;658959;-67
2023/10/24 00:23:54;;;;;;;9.13;3.33;;;6.80;99.90;;;;;;4360849;28;657457;-67
2023/10/24 00:26:41;;;;;;;11.53;4.03;;;6.90;99.90;;;;;;4367368;28;656584;-67
2023/10/24 00:29:28;;;;;;;17.87;4.37;;;7.00;99.90;;;;;;4344870;28;659869;-67
2023/10/24 00:32:15;;;;;;;8.90;3.80;;;7.00;99.90;;;;;;4365046;28;658360;-67
2023/10/24 00:35:03;;;;;;;11.80;4.17;;;7.00;99.90;;;;;;4349655;28;656446;-67
2023/10/24 00:37:50;;;;;;;12.50;4.30;;;7.00;99.90;;;;;;4368116;28;658465;-67
2023/10/24 00:40:39;;;;;;;7.87;3.47;;;7.00;99.90;;;;;;4361791;28;657886;-67
2023/10/24 00:43:26;;;;;;;7.30;4.00;;;6.90;99.90;;;;;;4374423;28;657057;-67
2023/10/24 00:46:13;;;;;;;8.13;3.60;;;6.90;99.90;;;;;;4362104;28;658244;-67
2023/10/24 00:49:00;;;;;;;8.63;3.33;;;6.90;99.90;;;;;;4380841;28;659018;-67
2023/10/24 00:51:48;;;;;;;9.83;3.87;;;6.90;99.90;;;;;;4351109;28;656626;-67
2023/10/24 00:54:35;;;;;;;14.50;3.80;;;7.00;99.90;;;;;;4368258;28;657905;-67
2023/10/24 00:57:24;;;;;;;12.17;4.10;;;7.10;99.90;;;;;;4348418;28;659656;-67
2023/10/24 01:00:12;;;;;;;10.93;4.03;;;7.10;99.90;;;;;;4371672;28;657070;-67
2023/10/24 01:02:59;;;;;;;12.37;3.63;;;7.20;99.90;;;;;;4360187;28;658792;-67
2023/10/24 01:05:47;;;;;;;15.50;4.00;;;7.10;99.90;;;;;;4374816;28;658112;-67
2023/10/24 01:08:34;;;;;;;10.67;3.40;;;7.10;99.90;;;;;;4351278;28;658829;-67
2023/10/24 01:11:22;;;;;;;9.67;3.33;;;7.10;99.90;;;;;;4373131;28;657722;-67
2023/10/24 01:14:11;;;;;;;9.97;4.10;;;7.10;99.90;;;;;;4353427;28;656862;-67
2023/10/24 01:16:58;;;;;;;7.10;3.80;;;7.20;99.90;;;;;;4353223;28;656654;-67
2023/10/24 01:19:45;;;;;;;9.25;3.50;;;7.20;99.90;;;;;;4370977;28;657918;-67
2023/10/24 01:22:34;;;;;;;16.23;4.03;;;7.20;99.90;;;;;;4350549;28;656839;-67
2023/10/24 01:25:21;;;;;;;12.40;3.37;;;7.20;99.90;;;;;;4372113;28;657126;-67
2023/10/24 01:28:09;;;;;;;8.77;3.70;;;7.20;99.90;;;;;;4349774;28;658089;-67
2023/10/24 01:30:56;;;;;;;9.00;3.47;;;7.20;99.90;;;;;;4370369;28;656655;-67
2023/10/24 01:33:43;;;;;;;11.47;4.00;;;7.40;99.90;;;;;;4349809;28;656423;-67
2023/10/24 01:36:31;;;;;;;14.20;4.10;;;7.30;99.90;;;;;;4372145;28;658379;-67
2023/10/24 01:39:19;;;;;;;14.93;4.23;;;7.30;99.90;;;;;;4344325;28;658217;-67
2023/10/24 01:42:07;;;;;;;13.00;3.93;;;7.40;99.90;;;;;;4356776;28;658162;-68
2023/10/24 01:44:54;;;;;;;12.27;4.80;;;7.40;99.90;;;;;;4336814;28;658001;-67
2023/10/24 01:47:41;;;;;;;10.97;4.53;;;7.40;99.90;;;;;;4362942;28;657447;-67
2023/10/24 01:50:28;;;;;;;12.77;4.77;;;7.40;99.90;;;;;;4335034;28;658099;-67
2023/10/24 01:53:15;;;;;;;12.03;5.20;;;7.40;99.90;;;;;;4366221;28;658150;-67
2023/10/24 01:56:04;;;;;;;18.87;5.60;;;7.40;99.90;;;;;;4341889;28;657542;-67
2023/10/24 01:58:51;;;;;;;9.17;4.23;;;7.50;99.90;;;;;;4355974;28;658098;-67
2023/10/24 02:01:39;;;;;;;11.60;3.90;;;7.50;99.90;;;;;;4338496;28;656751;-67
2023/10/24 02:04:26;;;;;;;13.33;4.20;;;7.60;99.90;;;;;;4358668;28;657089;-67
2023/10/24 02:07:13;;;;;;;6.93;3.20;;;7.60;99.90;;;;;;4336830;28;657568;-67
2023/10/24 02:10:00;;;;;;;10.50;3.77;;;7.70;99.90;;;;;;4364036;28;657799;-67
2023/10/24 02:12:49;;;;;;;7.90;3.40;;;7.80;99.90;;;;;;4338460;28;657553;-67
2023/10/24 02:15:37;;;;;;;6.83;3.50;;;7.80;99.90;;;;;;4356024;28;657063;-67
2023/10/24 02:18:24;;;;;;;14.77;3.87;;;7.90;99.90;;;;;;4338012;28;657101;-67
2023/10/24 02:21:11;;;;;;;9.70;3.70;;;8.00;99.90;;;;;;4357066;28;658834;-67
2023/10/24 02:23:58;;;;;;;14.33;4.30;;;8.00;99.90;;;;;;4342539;28;656274;-68
2023/10/24 02:26:46;;;;;;;10.27;4.13;;;8.20;99.90;;;;;;4361781;28;658105;-67
2023/10/24 02:29:34;;;;;;;12.67;4.47;;;8.20;99.90;;;;;;4343544;28;658298;-67
2023/10/24 02:32:22;;;;;;;12.97;5.20;;;8.20;99.90;;;;;;4361191;28;658008;-68
2023/10/24 02:35:09;;;;;;;14.87;5.40;;;8.20;99.90;;;;;;4336374;28;657652;-67
2023/10/24 02:37:56;;;;;;;12.10;6.10;;;8.30;99.90;;;;;;4363654;28;657039;-67
2023/10/24 02:40:52;;;;;;;12.20;4.50;;;8.40;99.90;;;;;;4355148;28;657431;-67
2023/10/24 02:43:39;;;;;;;8.03;4.73;;;8.40;99.90;;;;;;4326448;28;659018;-67
2023/10/24 02:46:28;;;;;;;11.13;4.50;;;8.50;99.90;;;;;;4380672;28;656137;-67
2023/10/24 02:49:16;;;;;;;10.83;4.33;;;8.50;99.90;;;;;;4348854;28;658713;-67
2023/10/24 02:52:04;;;;;;;11.17;4.50;;;8.60;99.90;;;;;;4354628;28;657747;-68
2023/10/24 02:54:51;;;;;;;7.97;4.20;;;8.60;99.90;;;;;;4369701;28;658027;-67
2023/10/24 02:57:38;;;;;;;10.40;4.10;;;8.60;99.90;;;;;;4358899;28;657795;-67
2023/10/24 03:00:25;;;;;;;14.57;5.10;;;8.50;99.90;;;;;;4379182;28;658425;-67
2023/10/24 03:03:14;;;;;;;15.80;6.07;;;8.50;99.90;;;;;;4352969;28;657376;-67
2023/10/24 03:06:01;;;;;;;21.97;8.63;;;8.50;99.90;;;;;;4372914;28;657616;-67
2023/10/24 03:08:49;;;;;;;22.43;9.63;;;8.50;99.90;;;;;;4352580;28;657748;-67
2023/10/24 03:11:36;;;;;;;20.47;7.27;;;8.50;99.90;;;;;;4375033;28;657559;-68
2023/10/24 03:14:23;;;;;;;13.47;6.33;;;8.40;99.90;;;;;;4354113;28;657721;-67
2023/10/24 03:17:11;;;;;;;13.13;5.93;;;8.40;99.90;;;;;;4373412;28;659624;-67
2023/10/24 03:19:59;;;;;;;11.83;5.30;;;8.50;99.90;;;;;;4353456;28;658369;-67
2023/10/24 03:22:46;;;;;;;11.93;5.57;;;8.50;99.90;;;;;;4373334;28;658604;-67
2023/10/24 03:25:33;;;;;;;11.20;5.63;;;8.50;99.90;;;;;;4349940;28;657318;-67
2023/10/24 03:28:21;;;;;;;13.77;6.03;;;8.40;99.90;;;;;;4378049;28;658106;-67
2023/10/24 03:31:08;;;;;;;14.03;5.80;;;8.40;99.90;;;;;;4354209;28;657662;-68
2023/10/24 03:33:55;;;;;;;11.33;5.40;;;8.30;99.90;;;;;;4372518;28;659027;-68
2023/10/24 03:36:44;;;;;;;13.07;5.43;;;8.30;99.90;;;;;;4352520;28;657448;-67
2023/10/24 03:39:31;;;;;;;9.03;4.90;;;8.30;99.90;;;;;;4370330;28;658451;-67
2023/10/24 03:42:19;;;;;;;15.10;5.60;;;8.30;99.90;;;;;;4354133;28;658138;-67
2023/10/24 03:45:07;;;;;;;9.03;4.97;;;8.30;99.90;;;;;;4370152;28;657985;-67
2023/10/24 03:47:55;;;;;;;12.70;4.57;;;8.30;99.90;;;;;;4353479;28;657079;-68
2023/10/24 03:50:42;;;;;;;9.50;4.80;;;8.20;99.90;;;;;;4371878;28;658148;-67
2023/10/24 03:53:30;;;;;;;10.20;4.63;;;8.20;99.90;;;;;;4351815;28;657474;-67
2023/10/24 03:56:18;;;;;;;8.43;4.70;;;8.20;99.90;;;;;;4352597;28;657134;-67
2023/10/24 03:59:06;;;;;;;12.53;5.10;;;8.30;99.90;;;;;;4371761;28;658524;-67
2023/10/24 04:01:54;;;;;;;10.07;4.70;;;8.10;99.90;;;;;;4350934;28;658167;-68
2023/10/24 04:04:41;;;;;;;14.40;4.63;;;8.10;99.90;;;;;;4371510;28;657903;-67
2023/10/24 04:07:28;;;;;;;11.87;4.50;;;8.10;99.90;;;;;;4354021;28;657261;-67
2023/10/24 04:10:17;;;;;;;10.20;3.97;;;8.10;99.90;;;;;;4371897;28;659768;-67
2023/10/24 04:13:04;;;;;;;9.20;4.20;;;8.00;99.90;;;;;;4349024;28;658709;-68
2023/10/24 04:15:58;;;;;;;12.63;4.10;;;8.00;99.90;;;;;;4374041;28;656498;-67
2023/10/24 04:18:45;;;;;;;9.15;4.20;;;8.20;99.90;;;;;;4326823;28;657767;-68
2023/10/24 04:21:32;;;;;;;9.07;4.35;;;8.30;99.90;;;;;;4352970;28;656957;-67
2023/10/24 04:24:20;;;;;;;9.80;4.50;;;8.30;99.90;;;;;;4380500;28;656364;-67
2023/10/24 04:27:09;;;;;;;9.23;4.40;;;8.30;99.90;;;;;;4367516;28;656749;-68
2023/10/24 04:29:57;;;;;;;11.33;4.30;;;8.30;99.90;;;;;;4370242;28;657061;-67
2023/10/24 04:32:44;;;;;;;7.13;3.90;;;8.40;99.90;;;;;;4350571;28;658093;-68
2023/10/24 04:35:31;;;;;;;10.17;3.90;;;8.40;99.90;;;;;;4373292;28;656805;-67
2023/10/24 04:38:19;;;;;;;8.87;4.00;;;8.50;99.90;;;;;;4348738;28;657977;-68
2023/10/24 04:41:06;;;;;;;9.83;3.83;;;8.40;99.90;;;;;;4373430;28;657671;-68
2023/10/24 04:43:55;;;;;;;11.60;4.50;;;8.40;99.90;;;;;;4353993;28;656402;-68
2023/10/24 04:46:42;;;;;;;15.33;4.80;;;8.40;99.90;;;;;;4368135;28;657396;-68
2023/10/24 04:49:30;;;;;;;15.37;4.63;;;8.40;99.90;;;;;;4378191;28;657535;-68
2023/10/24 04:52:17;;;;;;;13.20;4.87;;;8.40;99.90;;;;;;4365829;28;657239;-67
2023/10/24 04:55:04;;;;;;;11.70;4.47;;;8.40;99.90;;;;;;4350189;28;658524;-67
2023/10/24 04:57:52;;;;;;;15.67;5.57;;;8.50;99.90;;;;;;4372689;28;657981;-68
2023/10/24 05:00:40;;;;;;;13.70;5.20;;;8.40;99.90;;;;;;4351156;28;657828;-68
2023/10/24 05:03:28;;;;;;;13.93;4.50;;;8.40;99.90;;;;;;4355154;28;658766;-68
2023/10/24 05:06:15;;;;;;;11.40;4.87;;;8.50;99.90;;;;;;4373059;28;659306;-68
2023/10/24 05:09:02;;;;;;;16.20;4.30;;;8.60;99.90;;;;;;4365990;28;657399;-68
2023/10/24 05:11:50;;;;;;;10.27;4.23;;;8.60;99.90;;;;;;4375226;28;658204;-67
2023/10/24 05:14:37;;;;;;;8.47;3.80;;;8.70;99.90;;;;;;4355732;28;657772;-68
2023/10/24 05:17:26;;;;;;;9.67;3.70;;;8.70;99.90;;;;;;4376435;28;657583;-68
2023/10/24 05:20:17;;;;;;;6.63;3.10;;;8.70;99.90;;;;;;4351619;28;656334;-68
2023/10/24 05:23:04;;;;;;;7.37;3.23;;;8.80;99.90;;;;;;4350430;28;656727;-68
2023/10/24 05:25:51;;;;;;;5.13;2.73;;;8.80;99.90;;;;;;4367394;28;657038;-67
2023/10/24 05:28:38;;;;;;;7.03;2.85;;;8.80;99.90;;;;;;4344663;28;656309;-67
2023/10/24 05:31:26;;;;;;;12.73;3.37;;;8.80;99.90;;;;;;4371526;28;657771;-67
2023/10/24 05:34:15;;;;;;;7.03;2.97;;;8.70;99.90;;;;;;4347142;28;657640;-67
2023/10/24 05:37:02;;;;;;;10.47;3.03;;;8.70;99.90;;;;;;4367400;28;656836;-67
2023/10/24 05:39:49;;;;;;;7.53;2.83;;;8.70;99.90;;;;;;4348132;28;658381;-68
2023/10/24 05:42:37;;;;;;;8.23;3.30;;;8.70;99.90;;;;;;4372345;28;657516;-67
2023/10/24 05:45:24;;;;;;;7.87;3.30;;;8.70;99.90;;;;;;4352025;28;656221;-68
2023/10/24 05:48:11;;;;;;;10.43;3.47;;;8.70;99.90;;;;;;4371347;28;656510;-68
2023/10/24 05:51:00;;;;;;;11.20;3.40;;;8.80;99.90;;;;;;4353012;28;657852;-68
2023/10/24 05:53:47;;;;;;;8.23;2.90;;;8.80;99.90;;;;;;4370623;28;657493;-67
2023/10/24 05:56:34;;;;;;;7.80;3.60;;;8.70;99.90;;;;;;4355796;28;657841;-68
2023/10/24 05:59:21;;;;;;;8.57;3.33;;;8.60;99.90;;;;;;4376603;28;657244;-67
2023/10/24 06:02:08;;;;;;;8.53;3.00;;;8.60;99.90;;;;;;4355906;28;656304;-67
2023/10/24 06:04:56;;;;;;;6.30;3.53;;;8.60;99.90;;;;;;4379871;28;657663;-68
2023/10/24 06:07:44;;;;;;;9.10;3.83;;;8.60;99.90;;;;;;4356251;28;656335;-67
2023/10/24 06:10:31;;;;;;;7.90;3.23;;;8.70;99.90;;;;;;4380157;28;656808;-67
2023/10/24 06:13:19;;;;;;;5.63;3.10;;;8.90;99.90;;;;;;4351755;28;657378;-68
2023/10/24 06:16:09;;;;;;;10.87;3.10;;;9.10;99.90;;;;;;4375394;28;657155;-68
2023/10/24 06:18:56;;;;;;;7.83;2.87;;;9.20;99.90;;;;;;4351697;28;657402;-67
2023/10/24 06:21:44;;;;;;;6.03;2.93;;;9.40;99.90;;;;;;4357561;28;656693;-67
2023/10/24 06:24:32;;;;;;;6.97;2.80;;;9.60;99.90;;;;;;4373590;28;657130;-68
2023/10/24 06:27:19;;;;;;;8.40;3.10;;;9.80;99.90;;;;;;4357614;28;656606;-68
2023/10/24 06:30:08;;;;;;;7.53;3.00;;;9.90;99.90;;;;;;4371725;28;656172;-68
2023/10/24 06:32:55;;;;;;;7.03;2.67;;;10.00;99.90;;;;;;4357899;28;656917;-68
2023/10/24 06:35:42;;;;;;;10.17;3.67;;;10.10;99.90;;;;;;4362553;28;659089;-67
2023/10/24 06:38:31;;;;;;;12.80;3.03;;;10.20;99.90;;;;;;4378684;28;659754;-68
2023/10/24 06:41:19;;;;;;;8.80;3.80;;;10.30;99.90;;;;;;4356218;28;658580;-68
2023/10/24 06:44:07;;;;;;;10.10;3.73;;;10.30;99.90;;;;;;4374964;28;657813;-68
2023/10/24 06:46:54;;;;;;;8.17;3.33;;;10.50;99.90;;;;;;4358941;28;659759;-68
2023/10/24 06:49:41;;;;;;;7.93;3.53;;;10.60;99.90;;;;;;4378416;28;657126;-68
2023/10/24 06:52:28;;;;;;;8.53;3.27;;;10.70;99.90;;;;;;4357270;28;657991;-67
2023/10/24 06:55:16;;;;;;;7.00;3.50;;;10.80;99.90;;;;;;4382075;28;658651;-67
2023/10/24 06:58:05;;;;;;;6.33;3.67;;;10.80;99.90;;;;;;4354836;28;657678;-68
2023/10/24 07:00:52;;;;;;;11.03;5.87;;;10.90;99.90;;;;;;4376615;28;657316;-68
2023/10/24 07:03:39;;;;;;;8.97;4.33;;;10.90;99.90;;;;;;4357585;28;659701;-68
2023/10/24 07:06:26;;;;;;;8.83;3.63;;;10.90;99.90;;;;;;4376801;28;657493;-68
2023/10/24 07:09:13;;;;;;;10.23;2.60;;;10.90;99.90;;;;;;4352146;28;657752;-67
2023/10/24 07:12:01;;;;;;;8.77;2.90;;;11.00;99.90;;;;;;4371711;28;659475;-67
2023/10/24 07:14:53;;;;;;;7.43;2.67;;;11.10;99.90;;;;;;4352886;28;657791;-68
2023/10/24 07:17:40;;;;;;;7.00;2.60;;;11.20;99.90;;;;;;4348528;28;659256;-67
2023/10/24 07:20:27;;;;;;;5.73;2.90;;;11.40;99.90;;;;;;4356114;28;658557;-67
2023/10/24 07:23:15;;;;;;;7.27;2.70;;;11.60;99.90;;;;;;4381290;28;658574;-68
2023/10/24 07:26:03;;;;;;;8.87;2.50;;;11.80;99.90;;;;;;4360540;28;658731;-68
2023/10/24 07:28:50;;;;;;;5.53;2.13;;;12.00;99.90;;;;;;4370391;28;658880;-67
2023/10/24 07:31:39;;;;;;;5.60;2.27;;;12.10;99.90;;;;;;4358146;28;657994;-67
2023/10/24 07:34:26;;;;;;;7.40;2.30;;;12.30;99.90;;;;;;4371039;28;658225;-67
2023/10/24 07:37:13;;;;;;;3.90;2.30;;;12.50;99.90;;;;;;4353856;28;658926;-67
2023/10/24 07:40:00;;;;;;;4.80;2.20;;;12.60;99.90;;;;;;4370458;28;658912;-67
2023/10/24 07:42:48;;;;;;;5.00;2.70;;;12.80;99.90;;;;;;4355982;28;657757;-67
2023/10/24 07:45:35;;;;;;;3.83;2.00;;;13.00;99.90;;;;;;4375236;28;659557;-67
2023/10/24 07:48:24;;;;;;;6.87;2.73;;;13.10;99.90;;;;;;4351150;28;657667;-67
2023/10/24 07:51:12;;;;;;;7.13;2.53;;;13.30;99.90;;;;;;4374410;28;657601;-67
2023/10/24 07:53:59;;;;;;;6.03;2.73;;;13.40;99.90;;;;;;4353164;28;658241;-67
2023/10/24 07:56:47;;;;;;;5.00;2.43;;;13.60;99.90;;;;;;4377611;28;658525;-67
2023/10/24 07:59:34;;;;;;;7.03;2.37;;;13.80;99.90;;;;;;4351397;28;658277;-67
2023/10/24 08:02:21;;;;;;;5.37;2.87;;;13.80;99.90;;;;;;4371843;28;656999;-67
2023/10/24 08:05:10;;;;;;;5.07;2.73;;;14.00;99.90;;;;;;4349694;28;657246;-68
2023/10/24 08:07:57;;;;;;;7.87;3.13;;;14.20;99.90;;;;;;4343909;28;658026;-67
2023/10/24 08:10:45;;;;;;;5.00;2.63;;;14.40;99.90;;;;;;4375331;28;657481;-67
2023/10/24 08:13:32;;;;;;;5.77;3.00;;;14.50;99.90;;;;;;4374603;28;658043;-67
2023/10/24 08:16:20;;;;;;;5.83;3.13;;;14.70;99.90;;;;;;4377905;28;658990;-67
2023/10/24 08:19:07;;;;;;;9.52;3.45;;;14.80;99.90;;;;;;4349670;28;657928;-67
2023/10/24 08:21:56;;;;;;;5.70;2.73;;;15.00;99.90;;;;;;4374292;28;658326;-67
2023/10/24 08:24:43;;;;;;;6.00;2.90;;;15.10;99.90;;;;;;4355571;28;658235;-67
2023/10/24 08:27:30;;;;;;;7.70;3.40;;;15.30;99.90;;;;;;4371899;28;658921;-67
2023/10/24 08:30:18;;;;;;;9.77;3.70;;;15.50;99.90;;;;;;4347827;28;658946;-67
2023/10/24 08:33:05;;;;;;;8.30;3.40;;;15.80;99.90;;;;;;4371155;28;658780;-67
2023/10/24 08:35:52;;;;;;;5.80;2.80;;;16.10;99.90;;;;;;4362540;28;658058;-67
2023/10/24 08:38:41;;;;;;;5.17;2.53;;;16.10;99.90;;;;;;4376437;28;658665;-67
2023/10/24 08:41:29;;;;;;;5.50;2.58;;;16.30;99.90;;;;;;4349602;28;657599;-67
2023/10/24 08:44:16;;;;;;;7.00;2.43;;;16.60;99.90;;;;;;4372609;28;658852;-67
2023/10/24 08:47:04;;;;;;;7.07;2.40;;;16.90;99.90;;;;;;4352024;28;657192;-67
2023/10/24 08:49:51;;;;;;;9.00;2.60;;;16.80;99.90;;;;;;4373606;28;657991;-67
2023/10/24 08:52:38;;;;;;;6.70;2.57;;;16.50;99.90;;;;;;4351438;28;657524;-67
2023/10/24 08:55:27;;;;;;;4.80;2.40;;;16.80;99.90;;;;;;4375222;28;658620;-67
2023/10/24 08:58:14;;;;;;;4.37;2.53;;;17.20;99.90;;;;;;4349687;28;659299;-67
2023/10/24 09:01:02;;;;;;;5.47;2.70;;;17.70;99.90;;;;;;4372882;28;657119;-67
2023/10/24 09:03:49;;;;;;;5.70;3.13;;;18.00;99.90;;;;;;4354687;28;657619;-68
2023/10/24 09:06:36;;;;;;;6.83;3.03;;;17.60;99.90;;;;;;4378462;28;657431;-67
2023/10/24 09:09:24;;;;;;;7.07;3.20;;;17.70;99.90;;;;;;4352862;28;657343;-67
2023/10/24 09:12:15;;;;;;;8.27;3.50;;;17.30;99.90;;;;;;4372935;28;658363;-67
2023/10/24 09:15:03;;;;;;;9.83;3.33;;;17.20;99.90;;;;;;4333925;28;658552;-67
2023/10/24 09:17:50;;;;;;;5.93;3.13;;;17.40;99.90;;;;;;4368985;28;659376;-67
2023/10/24 09:20:37;;;;;;;6.10;3.27;;;17.60;99.90;;;;;;4358709;28;657462;-67
2023/10/24 09:23:25;;;;;;;11.07;3.33;;;17.70;99.90;;;;;;4369864;28;658604;-67
2023/10/24 09:26:12;;;;;;;6.67;3.50;;;17.80;99.90;;;;;;4364909;28;658591;-67
2023/10/24 09:29:00;;;;;;;11.50;3.57;;;17.60;99.90;;;;;;4354897;28;658546;-67
2023/10/24 09:31:48;;;;;;;5.40;3.03;;;17.40;99.90;;;;;;4350019;28;659802;-67
2023/10/24 09:34:35;;;;;;;4.67;3.00;;;17.70;99.90;;;;;;4369311;28;659202;-67
2023/10/24 09:37:23;;;;;;;6.53;3.33;;;18.10;99.90;;;;;;4360664;28;657748;-67
2023/10/24 09:40:12;;;;;;;6.30;3.30;;;18.20;99.90;;;;;;4369491;28;659032;-67
2023/10/24 09:42:59;;;;;;;8.33;2.93;;;18.60;99.90;;;;;;4355191;28;658214;-67
2023/10/24 09:45:47;;;;;;;6.23;3.00;;;18.60;99.90;;;;;;4372638;28;657240;-67
2023/10/24 09:48:35;;;;;;;9.50;3.13;;;18.70;99.90;;;;;;4353231;28;658009;-68
2023/10/24 09:51:22;;;;;;;8.83;3.20;;;18.60;99.90;;;;;;4367438;28;657879;-67
2023/10/24 09:54:11;;;;;;;6.07;3.08;;;18.80;99.90;;;;;;4354372;28;658709;-67
2023/10/24 09:56:58;;;;;;;8.27;3.20;;;18.80;99.90;;;;;;4354398;28;657673;-67
2023/10/24 09:59:46;;;;;;;5.37;3.13;;;19.00;99.90;;;;;;4374572;28;658344;-67
2023/10/24 10:02:35;;;;;;;5.90;3.10;;;19.30;99.90;;;;;;4347819;28;658189;-67
2023/10/24 10:05:23;;;;;;;8.83;3.30;;;19.60;99.90;;;;;;4361672;28;657639;-67
2023/10/24 10:08:10;;;;;;;7.40;2.77;;;19.90;99.90;;;;;;4371679;28;657519;-67
2023/10/24 10:10:57;;;;;;;5.10;2.83;;;19.90;99.90;;;;;;4352191;28;657563;-67
2023/10/24 10:13:50;;;;;;;4.70;2.70;;;19.90;99.90;;;;;;4378188;28;658994;-68
2023/10/24 10:16:44;;;;;;;5.33;2.30;;;20.60;99.90;;;;;;4327310;28;658092;-67
2023/10/24 10:19:43;;;;;;;4.83;2.50;;;21.40;87.20;;;;;;4344400;28;657626;-68
2023/10/24 10:22:39;;;;;;;7.30;3.10;;;22.10;78.20;;;;;;4347324;28;657896;-67
2023/10/24 10:25:50;;;;;;;5.27;2.27;;;22.30;69.20;;;;;;4345290;28;657676;-67
2023/10/24 10:28:50;;;;;;;6.57;2.50;;;21.50;73.80;;;;;;4327911;28;658462;-67
2023/10/24 10:31:47;;;;;;;3.80;1.97;;;21.30;75.50;;;;;;4326286;28;658781;-67
2023/10/24 10:34:37;;;;;;;5.80;2.40;;;20.70;87.00;;;;;;4359156;28;658222;-67
2023/10/24 10:37:30;;;;;;;7.37;2.97;;;20.50;94.20;;;;;;4350522;28;658430;-67
2023/10/24 10:40:26;;;;;;;6.53;2.80;;;20.20;99.90;;;;;;4338232;28;658507;-67
2023/10/24 10:43:31;;;;;;;6.70;2.00;;;20.40;99.90;;;;;;4351165;28;657976;-67
2023/10/24 10:46:18;;;;;;;6.77;2.53;;;20.80;95.10;;;;;;4334178;28;657896;-67
2023/10/24 10:49:06;;;;;;;5.53;3.10;;;21.10;85.60;;;;;;4373573;28;658650;-67
2023/10/24 10:51:55;;;;;;;6.40;2.20;;;21.30;77.00;;;;;;4348353;28;657325;-67
2023/10/24 10:54:48;;;;;;;4.47;2.37;;;21.00;92.10;;;;;;4365936;28;658529;-67
2023/10/24 10:57:41;;;;;;;4.53;2.20;;;21.00;86.20;;;;;;4348582;28;657987;-67
2023/10/24 11:00:33;;;;;;;5.60;3.40;;;21.00;79.70;;;;;;4356186;28;658129;-67
2023/10/24 11:03:37;;;;;;;8.07;2.00;;;21.60;76.10;;;;;;4351705;28;658266;-67
2023/10/24 11:06:25;;;;;;;4.13;2.33;;;22.40;69.70;;;;;;4337990;28;657647;-67
2023/10/24 11:09:14;;;;;;;8.47;1.80;;;23.20;64.70;;;;;;4360618;28;657570;-67
2023/10/24 11:12:23;;;;;;;9.50;2.85;;;23.70;61.70;;;;;;4386148;28;658185;-67
2023/10/24 11:15:29;;;;;;;4.70;2.45;;;24.50;59.40;;;;;;4362302;28;658411;-67
2023/10/24 11:18:16;;;;;;;4.55;1.80;;;25.00;57.60;;;;;;4353633;28;658443;-67
2023/10/24 11:21:04;;;;;;;4.60;1.85;;;24.30;55.40;;;;;;4365895;28;657461;-67
2023/10/24 11:23:51;;;;;;;4.22;1.88;;;23.90;59.10;;;;;;4383862;28;658075;-67
2023/10/24 11:26:40;;;;;;;10.07;2.00;;;23.20;57.30;;;;;;4355532;28;657476;-67
2023/10/24 11:29:28;;;;;;;7.20;2.75;;;23.10;59.30;;;;;;4354238;28;658849;-67
2023/10/24 11:32:15;;;;;;;4.82;2.58;;;22.70;60.30;;;;;;4382043;28;658846;-67
2023/10/24 11:35:03;;;;;;;11.18;3.22;;;22.30;62.50;;;;;;4375655;28;657810;-67
2023/10/24 11:37:50;;;;;;;12.45;2.47;;;22.80;58.20;;;;;;4390439;28;659627;-67
2023/10/24 11:40:37;;;;;;;5.22;1.70;;;23.40;57.20;;;;;;4351129;28;659079;-67
2023/10/24 11:43:28;;;;;;;2.60;1.70;;;23.60;55.20;;;;;;4368891;28;658587;-67
2023/10/24 11:46:16;;;;;;;6.65;2.22;;;23.80;55.90;;;;;;4351437;28;658443;-67
2023/10/24 11:49:03;;;;;;;8.65;2.53;;;23.90;56.40;;;;;;4363862;28;657582;-67
2023/10/24 11:51:51;;;;;;;3.10;2.00;;;24.10;54.30;;;;;;4372524;28;657993;-67
2023/10/24 11:54:38;;;;;;;6.97;2.25;;;24.00;55.90;;;;;;4357746;28;658085;-67
2023/10/24 11:57:26;;;;;;;8.30;3.28;;;24.10;56.50;;;;;;4376980;28;658716;-67
2023/10/24 12:00:17;;;;;;;4.70;2.00;;;24.00;55.70;;;;;;4346650;28;657622;-67
2023/10/24 12:03:04;;;;;;;4.15;2.10;;;23.40;55.90;;;;;;4350972;28;659533;-67
2023/10/24 12:05:52;;;;;;;7.78;2.97;;;23.20;56.80;;;;;;4391003;28;658409;-67
2023/10/24 12:08:39;;;;;;;4.20;2.08;;;22.80;57.80;;;;;;4356840;28;658334;-67
2023/10/24 12:11:26;;;;;;;6.35;2.10;;;22.50;58.60;;;;;;4374433;28;658236;-67
2023/10/24 12:14:13;;;;;;;6.15;2.47;;;21.90;62.10;;;;;;4348532;28;658165;-67
2023/10/24 12:17:02;;;;;;;4.43;2.50;;;21.70;66.20;;;;;;4371140;28;658681;-66
2023/10/24 12:19:49;;;;;;;5.10;2.47;;;21.30;73.60;;;;;;4352798;28;658341;-67
2023/10/24 12:22:36;;;;;;;4.80;2.30;;;20.80;90.20;;;;;;4376541;28;657636;-67
2023/10/24 12:25:24;;;;;;;9.70;2.40;;;20.60;97.70;;;;;;4353645;28;659012;-66
2023/10/24 12:28:11;;;;;;;7.77;3.30;;;20.30;99.90;;;;;;4372216;28;658268;-67
2023/10/24 12:30:58;;;;;;;3.70;2.40;;;20.10;99.90;;;;;;4350331;28;658657;-67
2023/10/24 12:33:48;;;;;;;6.10;2.73;;;19.80;99.90;;;;;;4374942;28;657854;-67
2023/10/24 12:36:36;;;;;;;5.37;3.10;;;19.30;99.90;;;;;;4349900;28;658151;-67
2023/10/24 12:39:23;;;;;;;4.03;2.57;;;18.90;99.90;;;;;;4348039;28;657792;-66
2023/10/24 12:42:10;;;;;;;8.07;2.70;;;18.70;99.90;;;;;;4367211;28;658755;-67
2023/10/24 12:44:57;;;;;;;5.20;2.77;;;18.20;99.90;;;;;;4356325;28;657904;-67
2023/10/24 12:47:45;;;;;;;10.23;3.07;;;18.00;99.90;;;;;;4369926;28;658678;-66
2023/10/24 12:50:33;;;;;;;9.77;3.17;;;17.80;99.90;;;;;;4363089;28;659902;-67
2023/10/24 12:53:21;;;;;;;6.07;3.10;;;17.50;99.90;;;;;;4346849;28;659174;-67
2023/10/24 12:56:09;;;;;;;4.87;2.83;;;17.40;99.90;;;;;;4346653;28;658023;-67
2023/10/24 12:58:56;;;;;;;6.83;3.77;;;17.10;99.90;;;;;;4362786;28;658158;-67
2023/10/24 13:01:44;;;;;;;6.40;3.80;;;17.00;99.90;;;;;;4348533;28;658004;-67
2023/10/24 13:04:31;;;;;;;10.03;4.90;;;16.90;99.90;;;;;;4365623;28;659254;-66
2023/10/24 13:07:20;;;;;;;11.70;3.80;;;16.70;99.90;;;;;;4342827;28;659148;-66
2023/10/24 13:10:08;;;;;;;9.60;3.70;;;16.50;99.90;;;;;;4350761;28;659263;-66
2023/10/24 13:12:55;;;;;;;8.80;4.00;;;16.50;99.90;;;;;;4368435;28;659446;-66
2023/10/24 13:15:43;;;;;;;8.77;4.47;;;16.30;99.90;;;;;;4346128;28;657522;-67
2023/10/24 13:18:30;;;;;;;7.57;4.00;;;16.10;99.90;;;;;;4367771;28;658370;-67
2023/10/24 13:21:18;;;;;;;10.97;4.90;;;16.00;99.90;;;;;;4365649;28;657793;-66
2023/10/24 13:24:07;;;;;;;7.13;4.57;;;16.00;99.90;;;;;;4364757;28;659664;-66
2023/10/24 13:26:54;;;;;;;9.03;4.60;;;15.80;99.90;;;;;;4339611;28;659355;-67
2023/10/24 13:29:41;;;;;;;10.83;4.50;;;15.60;99.90;;;;;;4366151;28;657897;-67
2023/10/24 13:32:29;;;;;;;10.23;5.20;;;15.60;99.90;;;;;;4343099;28;658516;-66
2023/10/24 13:35:16;;;;;;;15.57;5.47;;;15.50;99.90;;;;;;4363903;28;659578;-67
2023/10/24 13:38:03;;;;;;;10.77;6.17;;;15.50;99.90;;;;;;4348975;28;659144;-66
2023/10/24 13:40:52;;;;;;;10.63;6.57;;;15.40;99.90;;;;;;4361504;28;659897;-67
2023/10/24 13:43:39;;;;;;;13.13;5.47;;;15.30;99.90;;;;;;4349991;28;658940;-67
2023/10/24 13:46:27;;;;;;;10.83;6.13;;;15.20;99.90;;;;;;4367383;28;660239;-66
2023/10/24 13:49:14;;;;;;;14.90;6.53;;;15.10;99.90;;;;;;4348152;28;658588;-66
2023/10/24 13:52:01;;;;;;;12.30;7.13;;;15.10;99.90;;;;;;4364779;28;658619;-67
2023/10/24 13:54:49;;;;;;;12.10;6.30;;;15.00;99.90;;;;;;4344675;28;659312;-66
2023/10/24 13:57:37;;;;;;;11.80;6.90;;;15.00;99.90;;;;;;4365234;28;658879;-67
2023/10/24 14:00:25;;;;;;;19.27;7.30;;;14.80;99.90;;;;;;4343655;28;658850;-67
2023/10/24 14:03:12;;;;;;;20.00;7.13;;;14.80;99.90;;;;;;4364013;28;658625;-66
2023/10/24 14:05:59;;;;;;;13.10;7.50;;;14.70;99.90;;;;;;4343265;28;659078;-67
2023/10/24 14:08:47;;;;;;;16.83;7.77;;;14.60;99.90;;;;;;4357643;28;658969;-67
2023/10/24 14:11:34;;;;;;;11.13;7.50;;;14.50;99.90;;;;;;4340659;28;660831;-67
2023/10/24 14:14:24;;;;;;;15.13;7.27;;;14.60;99.90;;;;;;4362511;28;658779;-68
2023/10/24 14:17:11;;;;;;;19.17;8.13;;;14.50;99.90;;;;;;4343087;28;659574;-67
2023/10/24 14:19:58;;;;;;;14.30;7.93;;;14.40;99.90;;;;;;4342513;28;658817;-67
2023/10/24 14:22:49;;;;;;;19.77;8.97;;;14.30;99.90;;;;;;4363969;28;659516;-67
2023/10/24 14:25:36;;;;;;;19.67;9.33;;;14.30;99.90;;;;;;4348680;28;659504;-67